TimeCDT,TemperatureF,Dew PointF,Humidity,Sea Level PressureIn,VisibilityMPH,Wind Direction,Wind SpeedMPH,Gust SpeedMPH,PrecipitationIn,Events,Conditions,WindDirDegrees,DateUTC
12:56 AM,44.1,43.0,96,30.12,9.0,Calm,Calm,-,N/A,,Clear,0,2012-10-09 05:56:00
1:56 AM,43.0,42.1,97,30.12,9.0,Calm,Calm,-,N/A,,Clear,0,2012-10-09 06:56:00
2:56 AM,43.0,42.1,97,30.11,8.0,Calm,Calm,-,N/A,,Clear,0,2012-10-09 07:56:00
3:56 AM,44.1,42.1,93,30.11,8.0,Calm,Calm,-,N/A,,Clear,0,2012-10-09 08:56:00
4:56 AM,43.0,41.0,93,30.10,5.0,Calm,Calm,-,N/A,,Clear,0,2012-10-09 09:56:00
5:56 AM,42.1,41.0,96,30.12,8.0,Calm,Calm,-,N/A,,Clear,0,2012-10-09 10:56:00
6:56 AM,44.1,42.1,93,30.12,8.0,Calm,Calm,-,N/A,,Clear,0,2012-10-09 11:56:00
7:56 AM,46.0,45.0,96,30.13,8.0,Calm,Calm,-,N/A,,Clear,0,2012-10-09 12:56:00
8:56 AM,52.0,48.9,89,30.14,10.0,Calm,Calm,-,N/A,,Clear,0,2012-10-09 13:56:00
9:56 AM,59.0,50.0,72,30.13,10.0,Variable,4.6,-,N/A,,Clear,0,2012-10-09 14:56:00
10:56 AM,64.9,51.1,61,30.12,10.0,South,5.8,-,N/A,,Clear,180,2012-10-09 15:56:00
11:56 AM,69.1,54.0,58,30.10,10.0,Calm,Calm,-,N/A,,Clear,0,2012-10-09 16:56:00
12:56 PM,73.9,55.0,52,30.07,10.0,Variable,4.6,-,N/A,,Clear,0,2012-10-09 17:56:00
1:56 PM,77.0,55.9,48,30.03,10.0,Variable,3.5,-,N/A,,Clear,0,2012-10-09 18:56:00
2:56 PM,78.1,55.9,46,29.99,10.0,Variable,3.5,-,N/A,,Clear,0,2012-10-09 19:56:00
3:56 PM,80.1,55.9,43,29.97,10.0,Calm,Calm,-,N/A,,Clear,0,2012-10-09 20:56:00
4:56 PM,79.0,57.0,47,29.96,10.0,Variable,3.5,-,N/A,,Partly Cloudy,0,2012-10-09 21:56:00
5:56 PM,77.0,57.9,52,29.95,10.0,Variable,3.5,-,N/A,,Clear,0,2012-10-09 22:56:00
6:56 PM,69.1,61.0,75,29.96,10.0,Calm,Calm,-,N/A,,Partly Cloudy,0,2012-10-09 23:56:00
7:56 PM,66.0,60.1,81,29.97,10.0,Calm,Calm,-,N/A,,Partly Cloudy,0,2012-10-10 00:56:00
8:56 PM,64.9,60.1,84,29.99,8.0,Calm,Calm,-,N/A,,Clear,0,2012-10-10 01:56:00
9:56 PM,64.9,60.1,84,30.01,10.0,SSE,3.5,-,N/A,,Clear,150,2012-10-10 02:56:00
10:56 PM,62.1,60.1,93,30.02,10.0,Calm,Calm,-,N/A,,Clear,0,2012-10-10 03:56:00
11:56 PM,64.0,61.0,90,30.03,10.0,Calm,Calm,-,N/A,,Mostly Cloudy,0,2012-10-10 04:56:00